Time;durP1;ratioP1;P1;durP2;ratioP2;P2;SDS_P1;SDS_P2;PMS_P1;PMS_P2;Temp;Humidity;BMP_temperature;BMP_pressure;BME280_temperature;BME280_humidity;BME280_pressure;Samples;Min_cycle;Max_cycle;Signal;HPM_P1;HPM_P2
2024/02/13 00:00:17;;;;;;;6.78;4.60;;;6.10;99.90;;;;;;5081417;28;20070;-68
2024/02/13 00:02:43;;;;;;;6.80;5.18;;;6.10;99.90;;;;;;5081756;28;20024;-68
2024/02/13 00:05:09;;;;;;;5.95;4.10;;;6.20;99.90;;;;;;5081657;28;20032;-68
2024/02/13 00:07:38;;;;;;;6.07;4.20;;;6.10;99.90;;;;;;5081325;28;20020;-68
2024/02/13 00:10:10;;;;;;;5.00;4.13;;;6.30;99.90;;;;;;5081608;28;20025;-68
2024/02/13 00:12:39;;;;;;;7.30;4.72;;;6.10;99.90;;;;;;5081376;28;20100;-67
2024/02/13 00:15:06;;;;;;;;;;;6.20;99.90;;;;;;5081839;28;20252;-68
2024/02/13 00:17:33;;;;;;;9.57;4.57;;;6.10;99.90;;;;;;5081361;28;19923;-68
2024/02/13 00:19:59;;;;;;;7.72;5.05;;;6.30;99.90;;;;;;5081287;28;20032;-68
2024/02/13 00:22:25;;;;;;;6.75;4.60;;;6.30;99.90;;;;;;5081234;28;20024;-68
2024/02/13 00:24:51;;;;;;;6.95;5.05;;;6.30;99.90;;;;;;5081225;28;20055;-68
2024/02/13 00:27:17;;;;;;;7.88;4.35;;;6.30;99.90;;;;;;5081223;28;20031;-68
2024/02/13 00:29:44;;;;;;;8.15;4.80;;;6.30;99.90;;;;;;5081122;28;20020;-68
2024/02/13 00:32:11;;;;;;;7.18;4.45;;;6.50;99.90;;;;;;5081300;28;20069;-68
2024/02/13 00:34:37;;;;;;;6.18;4.00;;;6.30;99.90;;;;;;5080906;28;20048;-68
2024/02/13 00:37:03;;;;;;;6.32;4.53;;;6.30;99.90;;;;;;5081164;28;20020;-67
2024/02/13 00:39:29;;;;;;;8.30;4.97;;;6.40;99.90;;;;;;5081425;28;20050;-68
2024/02/13 00:41:55;;;;;;;5.50;4.70;;;6.30;99.90;;;;;;5081156;28;20232;-68
2024/02/13 00:44:24;;;;;;;7.00;4.43;;;6.50;99.90;;;;;;5081043;28;20326;-67
2024/02/13 00:46:52;;;;;;;;;;;6.30;99.90;;;;;;5081513;28;20018;-68
2024/02/13 00:49:19;;;;;;;9.35;4.88;;;6.40;99.90;;;;;;5081049;28;19908;-67
2024/02/13 00:51:45;;;;;;;8.00;4.75;;;6.30;99.90;;;;;;5080730;28;20017;-67
2024/02/13 00:54:13;;;;;;;5.13;3.92;;;6.10;99.90;;;;;;5080947;28;20028;-67
2024/02/13 00:56:40;;;;;;;5.97;4.43;;;6.10;99.90;;;;;;5080691;28;20041;-68
2024/02/13 00:59:07;;;;;;;7.97;4.53;;;6.20;99.90;;;;;;5080767;28;20027;-68
2024/02/13 01:01:33;;;;;;;10.13;5.38;;;6.30;99.90;;;;;;5069205;28;20115;-68
2024/02/13 01:03:59;;;;;;;7.88;4.78;;;6.30;99.90;;;;;;5070136;28;20103;-67
2024/02/13 01:06:24;;;;;;;6.72;4.88;;;6.40;99.90;;;;;;5080671;28;20020;-67
2024/02/13 01:08:50;;;;;;;8.88;4.90;;;6.20;99.90;;;;;;5077801;28;20027;-67
2024/02/13 01:11:17;;;;;;;5.53;4.32;;;6.30;99.90;;;;;;5069523;28;20048;-67
2024/02/13 01:13:44;;;;;;;5.05;4.32;;;6.30;99.90;;;;;;5059136;28;20381;-68
2024/02/13 01:16:10;;;;;;;6.25;4.47;;;;;;;;;;5070886;28;20373;-68
2024/02/13 01:18:35;;;;;;;5.72;4.43;;;6.30;99.90;;;;;;5082083;28;20023;-67
2024/02/13 01:21:03;;;;;;;7.30;5.03;;;6.50;99.90;;;;;;5084553;28;20021;-67
2024/02/13 01:23:29;;;;;;;6.35;4.72;;;6.50;99.90;;;;;;5084511;28;20116;-68
2024/02/13 01:25:56;;;;;;;8.98;5.10;;;6.10;99.90;;;;;;5084529;28;20032;-68
2024/02/13 01:28:22;;;;;;;8.85;5.45;;;6.10;99.90;;;;;;5084254;28;20051;-68
2024/02/13 01:30:48;;;;;;;9.15;4.90;;;6.10;99.90;;;;;;5084402;28;20036;-68
2024/02/13 01:33:14;;;;;;;6.60;5.07;;;6.20;99.90;;;;;;5081810;28;20116;-68
2024/02/13 01:35:42;;;;;;;8.95;5.53;;;5.90;99.90;;;;;;5072777;28;20100;-68
2024/02/13 01:38:09;;;;;;;8.30;5.05;;;5.90;99.90;;;;;;5084051;28;20032;-68
2024/02/13 01:40:36;;;;;;;7.75;5.10;;;5.90;99.90;;;;;;5084216;28;20020;-68
2024/02/13 01:43:02;;;;;;;9.52;5.10;;;5.70;99.90;;;;;;5084308;28;20028;-69
2024/02/13 01:45:28;;;;;;;8.75;5.10;;;5.80;99.90;;;;;;5084363;28;20020;-68
2024/02/13 01:47:55;;;;;;;8.27;5.55;;;5.60;99.90;;;;;;5084194;28;20332;-68
2024/02/13 01:50:21;;;;;;;7.20;5.03;;;5.70;99.90;;;;;;5083932;28;20028;-68
2024/02/13 01:52:50;;;;;;;8.80;6.22;;;6.00;99.90;;;;;;5084091;28;20017;-68
2024/02/13 01:55:19;;;;;;;7.82;4.90;;;5.80;99.90;;;;;;5073475;28;20111;-68
2024/02/13 01:57:45;;;;;;;7.82;4.53;;;5.70;99.90;;;;;;5084043;28;20032;-69
2024/02/13 02:00:15;;;;;;;7.18;4.70;;;5.50;99.90;;;;;;5084068;28;20135;-68
2024/02/13 02:02:46;;;;;;;7.03;4.35;;;5.70;99.90;;;;;;5083815;28;20024;-68
2024/02/13 02:05:13;;;;;;;6.43;4.22;;;5.60;99.90;;;;;;5083845;28;20353;-68
2024/02/13 02:07:42;;;;;;;6.90;5.00;;;5.50;99.90;;;;;;5083810;28;20032;-68
2024/02/13 02:10:09;;;;;;;8.85;4.78;;;5.40;99.90;;;;;;5082733;28;20028;-68
2024/02/13 02:12:35;;;;;;;5.93;4.45;;;5.40;99.90;;;;;;5096852;28;20024;-68
2024/02/13 02:15:02;;;;;;;6.78;4.65;;;5.20;99.90;;;;;;5103830;28;20032;-67
2024/02/13 02:17:28;;;;;;;6.05;4.68;;;5.20;99.90;;;;;;5103997;28;20020;-68
2024/02/13 02:19:54;;;;;;;7.32;5.30;;;5.20;99.90;;;;;;5103730;28;20047;-67
2024/02/13 02:22:20;;;;;;;7.20;5.10;;;5.00;99.90;;;;;;5103653;28;20316;-68
2024/02/13 02:24:45;;;;;;;5.38;4.20;;;5.20;99.90;;;;;;5084572;28;20024;-67
2024/02/13 02:27:12;;;;;;;8.32;4.95;;;;;;;;;;5083503;28;20028;-67
2024/02/13 02:29:38;;;;;;;6.22;5.10;;;5.10;99.90;;;;;;5084817;28;20223;-66
2024/02/13 02:32:04;;;;;;;6.15;4.93;;;5.10;99.90;;;;;;5103581;28;20051;-66
2024/02/13 02:34:31;;;;;;;5.05;4.28;;;;;;;;;;5103479;28;20399;-66
2024/02/13 02:36:57;;;;;;;7.25;4.55;;;4.80;99.90;;;;;;5103558;28;20039;-65
2024/02/13 02:39:22;;;;;;;7.28;4.85;;;4.50;99.90;;;;;;5103319;28;20320;-64
2024/02/13 02:41:49;;;;;;;8.38;5.88;;;4.80;99.90;;;;;;5103208;28;20069;-64
2024/02/13 02:44:15;;;;;;;6.68;5.10;;;;;;;;;;5103366;28;20284;-66
2024/02/13 02:46:41;;;;;;;8.88;5.60;;;4.80;99.90;;;;;;5093838;28;20220;-66
2024/02/13 02:49:07;;;;;;;6.88;5.00;;;5.60;99.90;;;;;;5103369;28;20031;-64
2024/02/13 02:51:33;;;;;;;7.00;4.55;;;4.60;99.90;;;;;;5103075;28;20016;-65
2024/02/13 02:53:59;;;;;;;7.05;5.15;;;4.60;99.90;;;;;;5103067;28;20066;-65
2024/02/13 02:56:25;;;;;;;9.60;5.65;;;4.60;99.90;;;;;;5102911;28;20035;-65
2024/02/13 02:58:50;;;;;;;9.02;5.40;;;4.70;99.90;;;;;;5103286;28;20020;-64
2024/02/13 03:01:16;;;;;;;6.82;5.28;;;4.60;99.90;;;;;;5103012;28;20028;-64
2024/02/13 03:03:42;;;;;;;9.75;4.80;;;4.80;99.90;;;;;;5103012;28;20054;-64
2024/02/13 03:06:08;;;;;;;7.03;5.35;;;4.60;99.90;;;;;;5103021;28;20422;-65
2024/02/13 03:08:34;;;;;;;8.07;5.45;;;;;;;;;;5102741;28;20316;-65
2024/02/13 03:11:00;;;;;;;8.32;5.15;;;4.70;99.90;;;;;;5102672;28;20104;-64
2024/02/13 03:13:26;;;;;;;8.68;5.35;;;4.70;99.90;;;;;;5102599;28;20028;-64
2024/02/13 03:15:52;;;;;;;8.55;5.28;;;4.80;99.90;;;;;;5102500;28;20032;-67
2024/02/13 03:18:18;;;;;;;7.28;5.30;;;;;;;;;;5102484;28;20028;-66
2024/02/13 03:20:44;;;;;;;7.60;5.28;;;4.60;99.90;;;;;;5102620;28;20091;-67
2024/02/13 03:23:10;;;;;;;8.05;4.85;;;4.40;99.90;;;;;;5102366;28;20204;-67
2024/02/13 03:25:35;;;;;;;6.97;5.20;;;4.60;99.90;;;;;;5102323;28;20028;-66
2024/02/13 03:28:03;;;;;;;8.95;5.68;;;4.50;99.90;;;;;;5102335;28;20038;-67
2024/02/13 03:30:29;;;;;;;7.78;4.78;;;4.50;99.90;;;;;;5102546;28;20028;-66
2024/02/13 03:32:55;;;;;;;10.18;5.55;;;;;;;;;;5100844;28;20469;-68
2024/02/13 03:35:21;;;;;;;8.10;5.05;;;;;;;;;;5102314;28;20050;-66
2024/02/13 03:37:47;;;;;;;9.13;5.55;;;4.50;99.90;;;;;;5102372;28;20055;-66
2024/02/13 03:40:15;;;;;;;9.82;5.97;;;4.20;99.90;;;;;;5088239;28;20062;-67
2024/02/13 03:42:42;;;;;;;8.02;5.22;;;4.30;99.90;;;;;;5071563;28;20036;-66
2024/02/13 03:45:09;;;;;;;10.48;6.13;;;;;;;;;;5080624;28;20386;-66
2024/02/13 03:47:35;;;;;;;16.30;6.80;;;;;;;;;;5081906;28;20093;-67
2024/02/13 03:50:02;;;;;;;8.50;5.43;;;4.30;99.90;;;;;;5064983;28;20036;-66
2024/02/13 03:52:28;;;;;;;7.25;5.07;;;4.70;99.90;;;;;;5061828;28;20040;-68
2024/02/13 03:54:54;;;;;;;8.15;5.95;;;4.10;99.90;;;;;;5061336;28;20266;-66
2024/02/13 03:57:20;;;;;;;9.90;5.95;;;4.10;99.90;;;;;;5061489;28;20028;-66
2024/02/13 03:59:46;;;;;;;9.38;5.72;;;;;;;;;;5061472;28;20382;-68
2024/02/13 04:02:11;;;;;;;10.75;5.15;;;4.60;99.90;;;;;;5061273;28;20216;-68
2024/02/13 04:04:37;;;;;;;7.70;5.65;;;;;;;;;;5061435;28;20036;-66
2024/02/13 04:07:04;;;;;;;7.13;5.47;;;4.20;99.90;;;;;;5061215;28;20324;-64
2024/02/13 04:09:31;;;;;;;10.35;6.15;;;3.90;99.90;;;;;;5061325;28;20032;-66
2024/02/13 04:11:57;;;;;;;11.68;6.60;;;;;;;;;;5061442;28;20079;-66
2024/02/13 04:14:23;;;;;;;11.07;6.88;;;;;;;;;;5061436;28;20028;-67
2024/02/13 04:16:49;;;;;;;9.15;6.72;;;4.30;99.90;;;;;;5061059;28;20324;-65
2024/02/13 04:19:15;;;;;;;10.13;6.43;;;4.10;99.90;;;;;;5061127;28;20096;-66
2024/02/13 04:21:41;;;;;;;12.30;6.72;;;4.10;99.90;;;;;;5061146;28;20082;-65
2024/02/13 04:24:07;;;;;;;10.15;6.60;;;4.00;99.90;;;;;;5061076;28;20029;-65
2024/02/13 04:26:38;;;;;;;9.65;6.15;;;4.20;99.90;;;;;;5061343;28;20032;-66
2024/02/13 04:29:03;;;;;;;8.27;6.15;;;4.00;99.90;;;;;;5061172;28;20376;-66
2024/02/13 04:31:29;;;;;;;9.73;6.60;;;3.70;99.90;;;;;;5061171;28;20056;-65
2024/02/13 04:33:55;;;;;;;15.25;7.65;;;3.70;99.90;;;;;;5060901;28;20076;-67
2024/02/13 04:36:21;;;;;;;12.48;7.00;;;3.90;99.90;;;;;;5071128;28;20055;-65
2024/02/13 04:38:46;;;;;;;12.52;6.35;;;3.80;99.90;;;;;;5101418;28;20020;-65
2024/02/13 04:41:13;;;;;;;13.50;7.18;;;;;;;;;;5101219;28;20069;-66
2024/02/13 04:43:39;;;;;;;10.38;6.57;;;4.20;99.90;;;;;;5100998;28;20299;-66
2024/02/13 04:46:06;;;;;;;14.07;7.47;;;3.70;99.90;;;;;;5101853;28;20020;-67
2024/02/13 04:48:31;;;;;;;11.65;7.28;;;3.80;99.90;;;;;;5102064;28;20027;-67
2024/02/13 04:50:57;;;;;;;16.45;8.38;;;4.00;99.90;;;;;;5102285;28;20032;-66
2024/02/13 04:53:23;;;;;;;13.85;7.13;;;;;;;;;;5100699;28;20031;-68
2024/02/13 04:55:49;;;;;;;11.70;7.65;;;;;;;;;;5101571;28;20043;-69
2024/02/13 04:58:17;;;;;;;15.07;8.15;;;3.80;99.90;;;;;;5101117;28;20032;-68
2024/02/13 05:01:01;;;;;;;12.90;8.48;;;3.60;99.90;;;;;;5101125;28;20036;-68
2024/02/13 05:08:58;;;;;;;14.07;8.30;;;;;;;;;;5100892;28;20031;-70
2024/02/13 05:11:25;;;;;;;16.40;8.98;;;3.70;99.90;;;;;;5100860;28;20047;-67
2024/02/13 05:13:52;;;;;;;16.05;9.18;;;3.70;99.90;;;;;;5101095;28;20020;-66
2024/02/13 05:16:18;;;;;;;13.40;9.43;;;3.60;99.90;;;;;;5072044;28;20037;-71
2024/02/13 05:18:47;;;;;;;15.63;8.63;;;3.70;99.90;;;;;;5060503;28;20020;-70
2024/02/13 05:21:14;;;;;;;16.55;9.18;;;3.70;99.90;;;;;;5060538;28;20040;-70
2024/02/13 05:23:40;;;;;;;14.63;8.75;;;3.60;99.90;;;;;;5060372;28;20404;-69
2024/02/13 05:26:12;;;;;;;14.85;9.05;;;;;;;;;;5063922;28;20025;-69
2024/02/13 05:28:37;;;;;;;18.33;10.00;;;3.70;99.90;;;;;;5060487;28;20013;-66
2024/02/13 05:31:06;;;;;;;18.52;10.57;;;3.70;99.90;;;;;;5060604;28;20304;-65
2024/02/13 05:33:35;;;;;;;14.18;8.88;;;3.60;99.90;;;;;;5060136;28;20053;-66
2024/02/13 05:36:02;;;;;;;14.77;8.73;;;3.70;99.90;;;;;;5060163;28;20040;-66
2024/02/13 05:38:28;;;;;;;15.30;9.25;;;3.60;99.90;;;;;;5059801;28;20092;-65
2024/02/13 05:40:55;;;;;;;17.67;9.85;;;;;;;;;;5070538;28;20024;-64
2024/02/13 05:43:21;;;;;;;15.60;9.48;;;;;;;;;;5079448;28;20016;-65
2024/02/13 05:45:49;;;;;;;16.50;10.10;;;3.70;99.90;;;;;;5079560;28;20049;-65
2024/02/13 05:48:18;;;;;;;23.88;10.20;;;3.60;99.90;;;;;;5080318;28;20037;-64
2024/02/13 05:50:45;;;;;;;19.27;11.17;;;3.70;99.90;;;;;;5080187;28;20093;-65
2024/02/13 05:53:10;;;;;;;15.10;9.45;;;3.60;99.90;;;;;;5080037;28;20025;-67
2024/02/13 05:55:37;;;;;;;17.02;9.75;;;;;;;;;;5079659;28;20067;-64
2024/02/13 05:58:03;;;;;;;13.43;8.90;;;3.60;99.90;;;;;;5080280;28;20139;-64
2024/02/13 06:00:30;;;;;;;18.55;9.75;;;3.50;99.90;;;;;;5079999;28;20317;-65
2024/02/13 06:02:57;;;;;;;17.42;10.15;;;;;;;;;;5080069;28;20084;-64
2024/02/13 06:05:23;;;;;;;19.83;10.50;;;;;;;;;;5082655;28;20020;-65
2024/02/13 06:07:50;;;;;;;19.40;10.15;;;3.50;99.90;;;;;;5082860;28;20039;-65
2024/02/13 06:10:16;;;;;;;17.33;10.80;;;3.40;99.90;;;;;;5063839;28;20036;-65
2024/02/13 06:12:43;;;;;;;18.02;10.55;;;3.10;99.90;;;;;;5063526;28;20025;-66
2024/02/13 06:15:09;;;;;;;20.27;10.40;;;3.50;99.90;;;;;;5063478;28;20031;-67
2024/02/13 06:17:36;;;;;;;20.40;11.15;;;3.50;99.90;;;;;;5063602;28;20091;-66
2024/02/13 06:20:04;;;;;;;18.48;10.52;;;3.50;99.90;;;;;;5063275;28;20021;-64
2024/02/13 06:22:37;;;;;;;20.30;11.02;;;3.50;99.90;;;;;;5063236;28;20031;-65
2024/02/13 06:25:04;;;;;;;19.30;11.38;;;3.70;99.90;;;;;;5063480;28;20025;-65
2024/02/13 06:27:34;;;;;;;15.38;10.00;;;3.60;99.90;;;;;;5063077;28;20172;-65
2024/02/13 06:30:00;;;;;;;16.73;10.30;;;;;;;;;;5063231;28;20395;-67
2024/02/13 06:32:26;;;;;;;19.60;10.65;;;;;;;;;;5062861;28;20413;-68
2024/02/13 06:34:53;;;;;;;18.55;10.60;;;;;;;;;;5062975;28;20032;-64
2024/02/13 06:37:22;;;;;;;21.13;12.15;;;3.70;99.90;;;;;;5070930;28;20321;-64
2024/02/13 06:39:50;;;;;;;20.38;12.48;;;3.60;99.90;;;;;;5082686;28;20103;-64
2024/02/13 06:42:17;;;;;;;15.32;8.20;;;3.60;99.90;;;;;;5082251;28;20033;-64
2024/02/13 06:44:46;;;;;;;20.10;12.15;;;;;;;;;;5083228;28;20024;-65
2024/02/13 06:47:12;;;;;;;;;;;3.70;99.90;;;;;;5083238;28;20028;-63
2024/02/13 06:49:38;;;;;;;21.25;11.85;;;3.70;99.90;;;;;;5082514;28;19947;-65
2024/02/13 06:52:05;;;;;;;20.50;12.15;;;3.80;99.90;;;;;;5081535;28;20023;-65
2024/02/13 06:54:31;;;;;;;20.90;11.93;;;;;;;;;;5082443;28;20089;-65
2024/02/13 06:56:57;;;;;;;21.05;11.98;;;3.90;99.90;;;;;;5082901;28;20032;-64
2024/02/13 06:59:23;;;;;;;24.08;12.15;;;3.70;99.90;;;;;;5082895;28;20035;-64
2024/02/13 07:01:48;;;;;;;20.05;12.40;;;3.90;99.90;;;;;;5082562;28;20400;-65
2024/02/13 07:04:14;;;;;;;21.98;13.02;;;4.00;99.90;;;;;;5082604;28;20076;-65
2024/02/13 07:06:40;;;;;;;22.48;12.85;;;;;;;;;;5082767;28;20032;-66
2024/02/13 07:09:06;;;;;;;22.83;13.13;;;4.50;99.90;;;;;;5082602;28;20336;-65
2024/02/13 07:11:32;;;;;;;21.00;12.50;;;4.20;99.90;;;;;;5082598;28;20131;-65
2024/02/13 07:13:59;;;;;;;21.27;12.30;;;4.30;99.90;;;;;;5082374;28;20051;-64
2024/02/13 07:16:25;;;;;;;25.42;12.77;;;4.30;99.90;;;;;;5081584;28;20078;-64
2024/02/13 07:18:51;;;;;;;24.55;13.95;;;;;;;;;;5081165;28;20315;-65
2024/02/13 07:21:19;;;;;;;20.65;12.57;;;;;;;;;;5082492;28;20035;-64
2024/02/13 07:23:45;;;;;;;29.08;14.63;;;4.80;99.90;;;;;;5082389;28;20023;-64
2024/02/13 07:26:11;;;;;;;23.48;14.05;;;4.70;99.90;;;;;;5082315;28;20032;-64
2024/02/13 07:28:38;;;;;;;21.60;13.70;;;4.70;99.90;;;;;;5077849;28;20025;-64
2024/02/13 07:31:04;;;;;;;15.32;10.32;;;;;;;;;;5066121;28;20041;-63
2024/02/13 07:33:31;;;;;;;20.05;12.20;;;4.80;99.90;;;;;;5061315;28;20048;-63
2024/02/13 07:36:00;;;;;;;16.92;12.07;;;;;;;;;;5061676;28;20040;-63
2024/02/13 07:38:25;;;;;;;17.63;11.03;;;5.50;99.90;;;;;;5062069;28;20063;-64
2024/02/13 07:40:51;;;;;;;18.70;12.98;;;5.30;99.90;;;;;;5062209;28;20021;-63
2024/02/13 07:43:17;;;;;;;18.13;11.48;;;;;;;;;;5061954;28;20028;-63
2024/02/13 07:45:43;;;;;;;17.73;10.68;;;;;;;;;;5063854;28;20062;-63
2024/02/13 07:48:11;;;;;;;15.88;10.88;;;5.60;99.90;;;;;;5082141;28;20035;-63
2024/02/13 07:50:38;;;;;;;18.05;12.15;;;5.70;99.90;;;;;;5081980;28;20032;-63
2024/02/13 07:53:10;;;;;;;17.00;11.32;;;5.80;99.90;;;;;;5082011;28;20036;-63
2024/02/13 07:55:36;;;;;;;17.83;11.98;;;5.80;99.90;;;;;;5081334;28;20358;-63
2024/02/13 07:58:05;;;;;;;17.92;11.77;;;6.00;99.90;;;;;;5081772;28;20020;-64
2024/02/13 08:00:33;;;;;;;16.52;10.60;;;6.00;99.90;;;;;;5081635;28;20024;-63
2024/02/13 08:02:59;;;;;;;18.52;11.15;;;6.20;99.90;;;;;;5080432;28;20220;-63
2024/02/13 08:05:25;;;;;;;17.85;11.32;;;6.40;99.90;;;;;;5081716;28;20095;-63
2024/02/13 08:07:51;;;;;;;14.15;11.00;;;6.40;99.90;;;;;;5080058;28;20050;-65
2024/02/13 08:10:17;;;;;;;17.10;10.70;;;6.50;99.90;;;;;;5081254;28;20020;-64
2024/02/13 08:12:43;;;;;;;15.52;10.88;;;;;;;;;;5081209;28;20044;-65
2024/02/13 08:15:09;;;;;;;16.38;9.98;;;6.70;99.90;;;;;;5081308;28;20036;-64
2024/02/13 08:17:36;;;;;;;15.77;10.30;;;;;;;;;;5081097;28;20347;-64
2024/02/13 08:20:04;;;;;;;13.40;9.68;;;7.00;99.90;;;;;;5081369;28;20028;-65
2024/02/13 08:22:30;;;;;;;16.00;10.52;;;7.20;99.90;;;;;;5080947;28;20016;-65
2024/02/13 08:25:00;;;;;;;13.93;9.13;;;7.50;99.90;;;;;;5080958;28;20078;-64
2024/02/13 08:27:26;;;;;;;15.15;9.60;;;7.40;99.90;;;;;;5080832;28;20358;-64
2024/02/13 08:29:52;;;;;;;13.98;9.93;;;7.60;99.90;;;;;;5080905;28;20309;-64
2024/02/13 08:32:19;;;;;;;14.23;9.85;;;;;;;;;;5080855;28;20028;-64
2024/02/13 08:34:45;;;;;;;12.85;9.57;;;7.60;99.90;;;;;;5080897;28;20111;-65
2024/02/13 08:37:12;;;;;;;14.60;10.55;;;7.90;99.90;;;;;;5081024;28;20043;-64
2024/02/13 08:39:38;;;;;;;13.13;8.27;;;7.90;99.90;;;;;;5080852;28;20217;-64
2024/02/13 08:42:04;;;;;;;16.58;8.20;;;8.50;99.90;;;;;;5081066;28;20024;-64
2024/02/13 08:44:32;;;;;;;14.10;8.70;;;8.40;99.90;;;;;;5081066;28;20103;-64
2024/02/13 08:46:57;;;;;;;14.55;8.85;;;8.80;99.90;;;;;;5080722;28;20317;-64
2024/02/13 08:49:23;;;;;;;13.32;10.25;;;8.30;99.90;;;;;;5080713;28;20020;-65
2024/02/13 08:51:49;;;;;;;15.63;8.55;;;8.60;99.90;;;;;;5080664;28;20028;-65
2024/02/13 08:54:14;;;;;;;11.13;7.45;;;8.60;99.90;;;;;;5080507;28;20037;-66
2024/02/13 08:56:40;;;;;;;8.45;5.80;;;8.70;99.90;;;;;;5080588;28;20031;-66
2024/02/13 08:59:08;;;;;;;12.48;7.55;;;8.80;99.90;;;;;;5080599;28;20070;-66
2024/02/13 09:01:34;;;;;;;12.80;7.85;;;8.60;99.90;;;;;;5080635;28;20331;-66
2024/02/13 09:04:02;;;;;;;12.77;7.13;;;9.00;99.90;;;;;;5080777;28;20040;-66
2024/02/13 09:06:28;;;;;;;11.65;8.35;;;9.10;99.90;;;;;;5080400;28;20017;-65
2024/02/13 09:08:54;;;;;;;13.07;7.95;;;9.50;99.90;;;;;;5080520;28;20104;-66
2024/02/13 09:11:20;;;;;;;18.58;9.77;;;9.20;99.90;;;;;;5080644;28;20028;-65
2024/02/13 09:13:46;;;;;;;11.55;7.90;;;9.10;99.90;;;;;;5080497;28;20016;-64
2024/02/13 09:16:13;;;;;;;14.50;8.45;;;9.30;99.90;;;;;;5079246;28;20331;-66
2024/02/13 09:18:40;;;;;;;12.90;8.75;;;9.20;99.90;;;;;;5080694;28;20047;-66
2024/02/13 09:21:06;;;;;;;11.25;7.53;;;9.40;99.90;;;;;;5080651;28;20216;-64
2024/02/13 09:23:33;;;;;;;11.23;6.28;;;9.20;99.90;;;;;;5076811;28;20036;-66
2024/02/13 09:25:59;;;;;;;10.02;5.57;;;9.40;99.90;;;;;;5080549;28;20028;-66
2024/02/13 09:28:28;;;;;;;10.63;7.15;;;9.50;99.90;;;;;;5080274;28;20051;-67
2024/02/13 09:30:54;;;;;;;11.40;6.95;;;9.80;99.90;;;;;;5080363;28;20024;-65
2024/02/13 09:33:21;;;;;;;10.52;8.07;;;9.70;99.90;;;;;;5080183;28;20411;-67
2024/02/13 09:35:50;;;;;;;10.18;7.85;;;9.60;99.90;;;;;;5080420;28;20042;-68
2024/02/13 09:38:16;;;;;;;10.43;7.03;;;9.40;99.90;;;;;;5080262;28;20054;-66
2024/02/13 09:40:42;;;;;;;9.85;7.90;;;9.30;99.90;;;;;;5083687;28;20052;-67
2024/02/13 09:43:08;;;;;;;11.60;7.03;;;9.50;99.90;;;;;;5084208;28;20028;-66
2024/02/13 09:45:39;;;;;;;6.30;4.72;;;9.00;99.90;;;;;;5084068;28;20024;-67
2024/02/13 09:48:16;;;;;;;20.80;8.38;;;9.00;95.60;;;;;;5084216;28;20093;-66
2024/02/13 09:50:43;;;;;;;10.20;7.35;;;8.90;95.40;;;;;;5084087;28;20074;-66
2024/02/13 09:53:28;;;;;;;7.90;5.60;;;8.70;99.90;;;;;;5083955;28;20205;-66
2024/02/13 09:56:00;;;;;;;9.75;6.63;;;9.20;99.90;;;;;;5082722;28;20066;-67
2024/02/13 09:58:26;;;;;;;25.80;9.02;;;9.00;99.90;;;;;;5084258;28;20430;-65
2024/02/13 10:00:52;;;;;;;12.75;6.75;;;9.10;99.90;;;;;;5083944;28;20258;-66
2024/02/13 10:03:18;;;;;;;11.65;7.05;;;9.10;99.90;;;;;;5084057;28;20054;-67
2024/02/13 10:05:45;;;;;;;11.93;6.05;;;;;;;;;;5083974;28;20020;-66
2024/02/13 10:08:11;;;;;;;11.48;7.20;;;9.50;99.90;;;;;;5083955;28;20124;-65
2024/02/13 10:10:38;;;;;;;10.60;6.15;;;9.70;99.90;;;;;;5083778;28;20024;-66
2024/02/13 10:13:04;;;;;;;7.68;5.03;;;9.90;99.80;;;;;;5083926;28;20028;-66
2024/02/13 10:15:40;;;;;;;11.77;9.02;;;9.90;98.60;;;;;;5083689;28;20082;-66
2024/02/13 10:18:08;;;;;;;9.52;6.90;;;10.10;98.60;;;;;;5083926;28;20020;-66
2024/02/13 10:20:37;;;;;;;8.65;6.60;;;10.30;98.30;;;;;;5083507;28;20021;-66
2024/02/13 10:23:04;;;;;;;9.60;6.38;;;10.60;97.50;;;;;;5083359;28;20020;-66
2024/02/13 10:25:31;;;;;;;8.63;5.97;;;10.60;95.80;;;;;;5083337;28;20201;-66
2024/02/13 10:28:01;;;;;;;8.80;6.15;;;10.90;95.40;;;;;;5083579;28;20042;-66
2024/02/13 10:30:30;;;;;;;14.93;7.97;;;11.00;94.00;;;;;;5083462;28;20317;-67
2024/02/13 10:33:01;;;;;;;8.18;6.18;;;10.80;93.00;;;;;;5083246;28;20067;-67
2024/02/13 10:35:29;;;;;;;8.93;5.03;;;11.10;92.40;;;;;;5083120;28;20033;-66
2024/02/13 10:37:55;;;;;;;8.30;5.13;;;10.60;92.00;;;;;;5083108;28;20047;-66
2024/02/13 10:40:23;;;;;;;8.32;4.95;;;10.60;92.00;;;;;;5083285;28;20028;-66
2024/02/13 10:42:50;;;;;;;8.10;4.68;;;11.10;91.60;;;;;;5082983;28;20447;-68
2024/02/13 10:45:17;;;;;;;6.72;4.57;;;11.10;90.20;;;;;;5082920;28;20201;-66
2024/02/13 10:47:54;;;;;;;5.72;4.63;;;11.10;89.80;;;;;;5078554;28;20031;-67
2024/02/13 10:50:22;;;;;;;8.90;5.10;;;11.40;89.40;;;;;;5070489;28;20032;-66
2024/02/13 10:52:54;;;;;;;8.80;6.28;;;11.60;88.80;;;;;;5077305;28;20095;-64
2024/02/13 10:55:21;;;;;;;8.50;6.95;;;11.60;72.20;;;;;;5080654;28;20256;-65
2024/02/13 10:57:49;;;;;;;13.32;7.85;;;12.00;90.20;;;;;;5082297;28;20062;-67
2024/02/13 11:00:19;;;;;;;11.70;8.88;;;11.80;90.80;;;;;;5082401;28;20084;-64
2024/02/13 11:02:54;;;;;;;10.13;7.80;;;11.90;90.40;;;;;;5082332;28;20055;-66
2024/02/13 11:05:23;;;;;;;11.93;8.73;;;12.20;90.40;;;;;;5082233;28;20078;-66
2024/02/13 11:07:50;;;;;;;10.40;7.20;;;12.20;90.20;;;;;;5076170;28;20415;-67
2024/02/13 11:10:16;;;;;;;9.80;7.03;;;11.90;89.10;;;;;;5062320;28;20076;-66
2024/02/13 11:12:44;;;;;;;10.25;6.82;;;11.70;89.90;;;;;;5062183;28;20017;-66
2024/02/13 11:15:15;;;;;;;10.00;5.65;;;12.00;89.20;;;;;;5062148;28;20028;-66
2024/02/13 11:17:54;;;;;;;9.68;5.97;;;12.40;89.20;;;;;;5060787;28;20021;-66
2024/02/13 11:20:25;;;;;;;10.00;6.93;;;12.10;89.70;;;;;;5061783;28;20059;-67
2024/02/13 11:22:59;;;;;;;7.50;4.93;;;12.00;89.20;;;;;;5070269;28;20051;-64
2024/02/13 11:25:29;;;;;;;8.80;5.93;;;11.90;89.40;;;;;;5081887;28;20313;-66
2024/02/13 11:28:03;;;;;;;7.68;6.00;;;11.90;88.70;;;;;;5081623;28;20130;-64
2024/02/13 11:30:29;;;;;;;8.38;5.15;;;11.80;72.40;;;;;;5080917;28;20370;-63
2024/02/13 11:32:58;;;;;;;6.25;5.32;;;11.50;88.80;;;;;;5081273;28;20044;-64
2024/02/13 11:35:27;;;;;;;8.30;5.07;;;12.00;72.20;;;;;;5080935;28;20036;-64
2024/02/13 11:37:53;;;;;;;7.00;5.10;;;12.00;85.80;;;;;;5080633;28;20020;-66
2024/02/13 11:40:20;;;;;;;6.30;4.75;;;12.10;69.50;;;;;;5081187;28;20028;-64
2024/02/13 11:42:46;;;;;;;11.18;4.10;;;12.20;85.50;;;;;;5080873;28;20025;-64
2024/02/13 11:45:22;;;;;;;6.40;4.22;;;12.30;85.10;;;;;;5081224;28;20023;-65
2024/02/13 11:47:52;;;;;;;4.88;3.90;;;12.50;84.20;;;;;;5081203;28;20225;-64
2024/02/13 11:50:18;;;;;;;5.15;3.92;;;12.60;82.90;;;;;;5081549;28;20070;-64
2024/02/13 11:52:45;;;;;;;4.57;3.83;;;12.80;82.10;;;;;;5081816;28;20232;-64
2024/02/13 11:55:12;;;;;;;4.30;3.90;;;12.80;65.60;;;;;;5081728;28;20139;-64
2024/02/13 11:57:37;;;;;;;4.75;3.53;;;12.50;80.70;;;;;;5081845;28;20028;-64
2024/02/13 12:00:18;;;;;;;6.70;4.10;;;12.60;80.50;;;;;;5081814;28;20121;-64
2024/02/13 12:02:47;;;;;;;8.43;5.30;;;12.60;64.10;;;;;;5081147;28;20101;-67
2024/02/13 12:05:13;;;;;;;4.80;4.22;;;12.90;81.20;;;;;;5081609;28;20088;-64
2024/02/13 12:07:41;;;;;;;5.57;3.30;;;13.00;80.90;;;;;;5081749;28;20029;-65
2024/02/13 12:10:10;;;;;;;5.53;4.20;;;13.10;79.90;;;;;;5081654;28;20027;-65
2024/02/13 12:12:36;;;;;;;6.03;4.07;;;13.30;80.20;;;;;;5081440;28;20253;-65
2024/02/13 12:15:07;;;;;;;4.35;2.80;;;12.90;80.40;;;;;;5081261;28;20405;-64
2024/02/13 12:17:33;;;;;;;4.43;3.80;;;12.90;64.70;;;;;;5081520;28;20054;-66
2024/02/13 12:19:59;;;;;;;5.50;3.83;;;12.80;64.40;;;;;;5081029;28;20029;-64
2024/02/13 12:22:28;;;;;;;6.15;4.80;;;13.10;63.60;;;;;;5081009;28;20095;-64
2024/02/13 12:24:56;;;;;;;7.20;3.83;;;13.70;80.10;;;;;;5080741;28;20028;-64
2024/02/13 12:27:24;;;;;;;5.18;4.07;;;13.30;79.40;;;;;;5080913;28;20032;-65
2024/02/13 12:29:49;;;;;;;4.10;3.63;;;13.20;63.60;;;;;;5080766;28;20029;-64
2024/02/13 12:32:20;;;;;;;3.70;3.40;;;12.60;79.10;;;;;;5080930;28;20028;-66
2024/02/13 12:34:51;;;;;;;4.28;3.63;;;12.30;79.50;;;;;;5080598;28;20098;-63
2024/02/13 12:37:20;;;;;;;5.03;2.85;;;12.20;79.90;;;;;;5080857;28;20032;-64
2024/02/13 12:39:47;;;;;;;4.65;3.70;;;12.10;69.20;;;;;;5080921;28;20228;-63
2024/02/13 12:42:13;;;;;;;3.58;3.15;;;12.00;64.00;;;;;;5080939;28;20039;-64
2024/02/13 12:44:47;;;;;;;4.28;3.40;;;12.30;64.20;;;;;;5080904;28;20208;-64
2024/02/13 12:47:14;;;;;;;4.97;3.00;;;13.00;63.60;;;;;;5080992;28;20039;-64
2024/02/13 12:49:42;;;;;;;4.35;3.50;;;13.70;77.20;;;;;;5081051;28;20027;-64
2024/02/13 12:52:17;;;;;;;4.20;3.13;;;13.40;61.90;;;;;;5080824;28;20083;-64
2024/02/13 12:54:45;;;;;;;4.53;3.00;;;13.30;61.00;;;;;;5080292;28;20095;-64
2024/02/13 12:57:11;;;;;;;4.80;3.47;;;13.30;75.70;;;;;;5080647;28;20089;-64
2024/02/13 12:59:38;;;;;;;2.55;2.35;;;12.20;75.00;;;;;;5080603;28;20032;-64
2024/02/13 13:02:08;;;;;;;2.63;1.83;;;11.90;77.00;;;;;;5080554;28;20233;-65
2024/02/13 13:04:35;;;;;;;2.88;2.25;;;11.60;78.10;;;;;;5080681;28;20020;-66